sensor_id;sensor_type;location;lat;lon;timestamp;temperature;humidity
34829;DHT22;21042;47.620;12.188;2023-06-10T00:00:26;14.50;99.90
34829;DHT22;21042;47.620;12.188;2023-06-10T00:02:53;14.40;99.90
34829;DHT22;21042;47.620;12.188;2023-06-10T00:05:20;14.40;99.90
34829;DHT22;21042;47.620;12.188;2023-06-10T00:07:48;14.20;99.90
34829;DHT22;21042;47.620;12.188;2023-06-10T00:10:16;14.20;99.90
34829;DHT22;21042;47.620;12.188;2023-06-10T00:12:43;14.20;99.90
34829;DHT22;21042;47.620;12.188;2023-06-10T00:15:10;14.20;99.90
34829;DHT22;21042;47.620;12.188;2023-06-10T00:17:38;14.20;99.90
34829;DHT22;21042;47.620;12.188;2023-06-10T00:20:10;14.20;99.90
34829;DHT22;21042;47.620;12.188;2023-06-10T00:22:40;14.20;99.90
34829;DHT22;21042;47.620;12.188;2023-06-10T00:25:09;14.20;99.90
34829;DHT22;21042;47.620;12.188;2023-06-10T00:27:37;14.20;99.90
34829;DHT22;21042;47.620;12.188;2023-06-10T00:30:05;14.20;99.90
34829;DHT22;21042;47.620;12.188;2023-06-10T00:32:34;14.10;99.90
34829;DHT22;21042;47.620;12.188;2023-06-10T00:35:05;13.90;99.90
34829;DHT22;21042;47.620;12.188;2023-06-10T00:37:33;13.70;99.90
34829;DHT22;21042;47.620;12.188;2023-06-10T00:40:03;13.50;99.90
34829;DHT22;21042;47.620;12.188;2023-06-10T00:42:31;13.50;99.90
34829;DHT22;21042;47.620;12.188;2023-06-10T00:44:58;13.50;99.90
34829;DHT22;21042;47.620;12.188;2023-06-10T00:47:26;13.50;99.90
34829;DHT22;21042;47.620;12.188;2023-06-10T00:49:54;13.60;99.90
34829;DHT22;21042;47.620;12.188;2023-06-10T00:52:25;13.60;99.90
34829;DHT22;21042;47.620;12.188;2023-06-10T00:54:53;13.70;99.90
34829;DHT22;21042;47.620;12.188;2023-06-10T00:57:21;13.80;99.90
34829;DHT22;21042;47.620;12.188;2023-06-10T00:59:48;13.80;99.90
34829;DHT22;21042;47.620;12.188;2023-06-10T01:02:16;13.80;99.90
34829;DHT22;21042;47.620;12.188;2023-06-10T01:04:43;13.80;99.90
34829;DHT22;21042;47.620;12.188;2023-06-10T01:10:15;13.90;99.90
34829;DHT22;21042;47.620;12.188;2023-06-10T01:12:52;13.80;99.90
34829;DHT22;21042;47.620;12.188;2023-06-10T01:15:23;13.70;99.90
34829;DHT22;21042;47.620;12.188;2023-06-10T01:18:00;13.70;99.90
34829;DHT22;21042;47.620;12.188;2023-06-10T01:20:31;13.60;99.90
34829;DHT22;21042;47.620;12.188;2023-06-10T01:22:59;13.60;99.90
34829;DHT22;21042;47.620;12.188;2023-06-10T01:25:28;13.60;99.90
34829;DHT22;21042;47.620;12.188;2023-06-10T01:30:30;13.50;99.90
34829;DHT22;21042;47.620;12.188;2023-06-10T01:33:00;13.30;99.90
34829;DHT22;21042;47.620;12.188;2023-06-10T01:35:29;13.40;99.90
34829;DHT22;21042;47.620;12.188;2023-06-10T01:37:58;13.40;99.90
34829;DHT22;21042;47.620;12.188;2023-06-10T01:40:26;13.30;99.90
34829;DHT22;21042;47.620;12.188;2023-06-10T01:42:53;13.10;99.90
34829;DHT22;21042;47.620;12.188;2023-06-10T01:45:20;13.00;99.90
34829;DHT22;21042;47.620;12.188;2023-06-10T01:47:47;12.90;99.90
34829;DHT22;21042;47.620;12.188;2023-06-10T01:50:14;13.00;99.90
34829;DHT22;21042;47.620;12.188;2023-06-10T01:52:42;13.00;99.90
34829;DHT22;21042;47.620;12.188;2023-06-10T01:55:09;13.00;99.90
34829;DHT22;21042;47.620;12.188;2023-06-10T01:57:39;13.00;99.90
34829;DHT22;21042;47.620;12.188;2023-06-10T02:00:06;13.00;99.90
34829;DHT22;21042;47.620;12.188;2023-06-10T02:02:40;13.10;99.90
34829;DHT22;21042;47.620;12.188;2023-06-10T02:05:07;13.00;99.90
34829;DHT22;21042;47.620;12.188;2023-06-10T02:07:34;13.10;99.90
34829;DHT22;21042;47.620;12.188;2023-06-10T02:10:01;13.10;99.90
34829;DHT22;21042;47.620;12.188;2023-06-10T02:12:28;13.10;99.90
34829;DHT22;21042;47.620;12.188;2023-06-10T02:14:55;13.00;99.90
34829;DHT22;21042;47.620;12.188;2023-06-10T02:17:22;13.00;99.90
34829;DHT22;21042;47.620;12.188;2023-06-10T02:19:50;13.00;99.90
34829;DHT22;21042;47.620;12.188;2023-06-10T02:22:21;13.00;99.90
34829;DHT22;21042;47.620;12.188;2023-06-10T02:24:48;13.10;99.90
34829;DHT22;21042;47.620;12.188;2023-06-10T02:27:16;13.00;99.90
34829;DHT22;21042;47.620;12.188;2023-06-10T02:29:43;13.00;99.90
34829;DHT22;21042;47.620;12.188;2023-06-10T02:32:11;12.90;99.90
34829;DHT22;21042;47.620;12.188;2023-06-10T02:34:41;12.80;99.90
34829;DHT22;21042;47.620;12.188;2023-06-10T02:37:09;12.80;99.90
34829;DHT22;21042;47.620;12.188;2023-06-10T02:39:36;12.60;99.90
34829;DHT22;21042;47.620;12.188;2023-06-10T02:42:07;12.60;99.90
34829;DHT22;21042;47.620;12.188;2023-06-10T02:44:34;12.60;99.90
34829;DHT22;21042;47.620;12.188;2023-06-10T02:47:02;12.70;99.90
34829;DHT22;21042;47.620;12.188;2023-06-10T02:49:29;12.60;99.90
34829;DHT22;21042;47.620;12.188;2023-06-10T02:51:56;12.60;99.90
34829;DHT22;21042;47.620;12.188;2023-06-10T02:54:24;12.60;99.90
34829;DHT22;21042;47.620;12.188;2023-06-10T02:56:53;12.60;99.90
34829;DHT22;21042;47.620;12.188;2023-06-10T02:59:24;12.60;99.90
34829;DHT22;21042;47.620;12.188;2023-06-10T03:01:53;12.60;99.90
34829;DHT22;21042;47.620;12.188;2023-06-10T03:04:22;12.60;99.90
34829;DHT22;21042;47.620;12.188;2023-06-10T03:06:58;12.60;99.90
34829;DHT22;21042;47.620;12.188;2023-06-10T03:09:30;12.50;99.90
34829;DHT22;21042;47.620;12.188;2023-06-10T03:11:59;12.50;99.90
34829;DHT22;21042;47.620;12.188;2023-06-10T03:14:31;12.50;99.90
34829;DHT22;21042;47.620;12.188;2023-06-10T03:16:58;12.60;99.90
34829;DHT22;21042;47.620;12.188;2023-06-10T03:19:26;12.50;99.90
34829;DHT22;21042;47.620;12.188;2023-06-10T03:22:07;12.80;99.90
34829;DHT22;21042;47.620;12.188;2023-06-10T03:24:37;12.50;99.90
34829;DHT22;21042;47.620;12.188;2023-06-10T03:27:09;12.50;99.90
34829;DHT22;21042;47.620;12.188;2023-06-10T03:29:39;12.50;99.90
34829;DHT22;21042;47.620;12.188;2023-06-10T03:32:07;12.50;99.90
34829;DHT22;21042;47.620;12.188;2023-06-10T03:34:35;12.40;99.90
34829;DHT22;21042;47.620;12.188;2023-06-10T03:37:02;12.40;99.90
34829;DHT22;21042;47.620;12.188;2023-06-10T03:39:30;12.40;99.90
34829;DHT22;21042;47.620;12.188;2023-06-10T03:41:58;12.40;99.90
34829;DHT22;21042;47.620;12.188;2023-06-10T03:44:27;12.40;99.90
34829;DHT22;21042;47.620;12.188;2023-06-10T03:46:55;12.40;99.90
34829;DHT22;21042;47.620;12.188;2023-06-10T03:49:23;12.50;99.90
34829;DHT22;21042;47.620;12.188;2023-06-10T03:51:53;12.50;99.90
34829;DHT22;21042;47.620;12.188;2023-06-10T03:54:20;12.50;99.90
34829;DHT22;21042;47.620;12.188;2023-06-10T03:56:47;12.50;99.90
34829;DHT22;21042;47.620;12.188;2023-06-10T03:59:14;12.60;99.90
34829;DHT22;21042;47.620;12.188;2023-06-10T04:01:41;12.60;99.90
34829;DHT22;21042;47.620;12.188;2023-06-10T04:04:11;12.50;99.90
34829;DHT22;21042;47.620;12.188;2023-06-10T04:06:38;12.60;99.90
34829;DHT22;21042;47.620;12.188;2023-06-10T04:09:05;12.50;99.90
34829;DHT22;21042;47.620;12.188;2023-06-10T04:11:32;12.50;99.90
34829;DHT22;21042;47.620;12.188;2023-06-10T04:13:59;12.60;99.90
34829;DHT22;21042;47.620;12.188;2023-06-10T04:16:26;12.60;99.90
34829;DHT22;21042;47.620;12.188;2023-06-10T04:18:53;12.60;99.90
34829;DHT22;21042;47.620;12.188;2023-06-10T04:21:20;12.70;99.90
34829;DHT22;21042;47.620;12.188;2023-06-10T04:23:49;12.70;99.90
34829;DHT22;21042;47.620;12.188;2023-06-10T04:26:16;12.80;99.90
34829;DHT22;21042;47.620;12.188;2023-06-10T04:28:46;12.80;99.90
34829;DHT22;21042;47.620;12.188;2023-06-10T04:31:13;12.80;99.90
34829;DHT22;21042;47.620;12.188;2023-06-10T04:33:40;12.90;99.90
34829;DHT22;21042;47.620;12.188;2023-06-10T04:36:07;12.90;99.90
34829;DHT22;21042;47.620;12.188;2023-06-10T04:38:35;12.90;99.90
34829;DHT22;21042;47.620;12.188;2023-06-10T04:41:02;12.90;99.90
34829;DHT22;21042;47.620;12.188;2023-06-10T04:43:32;13.00;99.90
34829;DHT22;21042;47.620;12.188;2023-06-10T04:46:00;13.00;99.90
34829;DHT22;21042;47.620;12.188;2023-06-10T04:48:28;13.00;99.90
34829;DHT22;21042;47.620;12.188;2023-06-10T04:50:55;13.00;99.90
34829;DHT22;21042;47.620;12.188;2023-06-10T04:53:23;13.30;99.90
34829;DHT22;21042;47.620;12.188;2023-06-10T04:55:49;13.20;99.90
34829;DHT22;21042;47.620;12.188;2023-06-10T04:58:16;13.20;99.90
34829;DHT22;21042;47.620;12.188;2023-06-10T05:00:43;13.30;99.90
34829;DHT22;21042;47.620;12.188;2023-06-10T05:03:10;13.40;99.90
34829;DHT22;21042;47.620;12.188;2023-06-10T05:05:37;13.40;99.90
34829;DHT22;21042;47.620;12.188;2023-06-10T05:08:04;13.50;99.90
34829;DHT22;21042;47.620;12.188;2023-06-10T05:10:34;13.60;99.90
34829;DHT22;21042;47.620;12.188;2023-06-10T05:13:01;13.60;99.90
34829;DHT22;21042;47.620;12.188;2023-06-10T05:15:29;13.70;99.90
34829;DHT22;21042;47.620;12.188;2023-06-10T05:17:57;13.60;99.90
34829;DHT22;21042;47.620;12.188;2023-06-10T05:20:29;13.70;99.90
34829;DHT22;21042;47.620;12.188;2023-06-10T05:22:56;13.70;99.90
34829;DHT22;21042;47.620;12.188;2023-06-10T05:25:22;13.90;99.90
34829;DHT22;21042;47.620;12.188;2023-06-10T05:27:49;14.00;99.90
34829;DHT22;21042;47.620;12.188;2023-06-10T05:30:16;14.30;99.90
34829;DHT22;21042;47.620;12.188;2023-06-10T05:32:45;14.70;99.90
34829;DHT22;21042;47.620;12.188;2023-06-10T05:35:12;14.50;99.90
34829;DHT22;21042;47.620;12.188;2023-06-10T05:37:38;14.40;99.90
34829;DHT22;21042;47.620;12.188;2023-06-10T05:40:06;14.40;99.90
34829;DHT22;21042;47.620;12.188;2023-06-10T05:42:33;14.40;99.90
34829;DHT22;21042;47.620;12.188;2023-06-10T05:45:00;14.40;99.90
34829;DHT22;21042;47.620;12.188;2023-06-10T05:47:26;14.40;99.90
34829;DHT22;21042;47.620;12.188;2023-06-10T05:49:53;14.50;99.90
34829;DHT22;21042;47.620;12.188;2023-06-10T05:52:20;14.60;99.90
34829;DHT22;21042;47.620;12.188;2023-06-10T05:54:47;14.60;99.90
34829;DHT22;21042;47.620;12.188;2023-06-10T05:57:14;14.70;99.90
34829;DHT22;21042;47.620;12.188;2023-06-10T05:59:40;14.70;99.90
34829;DHT22;21042;47.620;12.188;2023-06-10T06:02:07;14.80;99.90
34829;DHT22;21042;47.620;12.188;2023-06-10T06:04:34;14.90;99.90
34829;DHT22;21042;47.620;12.188;2023-06-10T06:07:01;14.90;99.90
34829;DHT22;21042;47.620;12.188;2023-06-10T06:09:28;15.00;99.90
34829;DHT22;21042;47.620;12.188;2023-06-10T06:11:54;15.10;99.90
34829;DHT22;21042;47.620;12.188;2023-06-10T06:14:21;15.10;99.90
34829;DHT22;21042;47.620;12.188;2023-06-10T06:16:48;15.20;99.90
34829;DHT22;21042;47.620;12.188;2023-06-10T06:19:15;15.30;99.90
34829;DHT22;21042;47.620;12.188;2023-06-10T06:21:42;15.40;99.90
34829;DHT22;21042;47.620;12.188;2023-06-10T06:24:09;15.50;99.90
34829;DHT22;21042;47.620;12.188;2023-06-10T06:26:36;15.60;99.90
34829;DHT22;21042;47.620;12.188;2023-06-10T06:29:02;15.70;99.90
34829;DHT22;21042;47.620;12.188;2023-06-10T06:31:30;15.80;99.90
34829;DHT22;21042;47.620;12.188;2023-06-10T06:33:57;16.00;99.90
34829;DHT22;21042;47.620;12.188;2023-06-10T06:36:23;16.10;99.90
34829;DHT22;21042;47.620;12.188;2023-06-10T06:38:50;16.20;99.90
34829;DHT22;21042;47.620;12.188;2023-06-10T06:41:18;16.30;99.90
34829;DHT22;21042;47.620;12.188;2023-06-10T06:43:45;16.40;99.90
34829;DHT22;21042;47.620;12.188;2023-06-10T06:46:29;16.50;99.90
34829;DHT22;21042;47.620;12.188;2023-06-10T06:48:56;16.80;99.90
34829;DHT22;21042;47.620;12.188;2023-06-10T06:51:23;16.90;99.90
34829;DHT22;21042;47.620;12.188;2023-06-10T06:53:49;17.00;99.90
34829;DHT22;21042;47.620;12.188;2023-06-10T06:56:17;17.20;99.90
34829;DHT22;21042;47.620;12.188;2023-06-10T06:58:44;17.40;99.90
34829;DHT22;21042;47.620;12.188;2023-06-10T07:01:11;17.40;99.90
34829;DHT22;21042;47.620;12.188;2023-06-10T07:03:37;17.50;99.90
34829;DHT22;21042;47.620;12.188;2023-06-10T07:06:04;17.60;99.90
34829;DHT22;21042;47.620;12.188;2023-06-10T07:08:31;17.80;99.90
34829;DHT22;21042;47.620;12.188;2023-06-10T07:10:58;17.90;99.90
34829;DHT22;21042;47.620;12.188;2023-06-10T07:13:25;17.90;99.90
34829;DHT22;21042;47.620;12.188;2023-06-10T07:15:51;18.00;99.90
34829;DHT22;21042;47.620;12.188;2023-06-10T07:18:18;18.20;99.90
34829;DHT22;21042;47.620;12.188;2023-06-10T07:20:45;18.30;99.90
34829;DHT22;21042;47.620;12.188;2023-06-10T07:23:12;18.30;99.90
34829;DHT22;21042;47.620;12.188;2023-06-10T07:25:38;18.40;99.90
34829;DHT22;21042;47.620;12.188;2023-06-10T07:28:07;18.60;99.90
34829;DHT22;21042;47.620;12.188;2023-06-10T07:30:34;18.70;99.90
34829;DHT22;21042;47.620;12.188;2023-06-10T07:33:00;18.80;99.90
34829;DHT22;21042;47.620;12.188;2023-06-10T07:35:29;18.90;99.90
34829;DHT22;21042;47.620;12.188;2023-06-10T07:37:55;19.00;99.90
34829;DHT22;21042;47.620;12.188;2023-06-10T07:40:23;19.00;99.90
34829;DHT22;21042;47.620;12.188;2023-06-10T07:42:50;19.10;99.90
34829;DHT22;21042;47.620;12.188;2023-06-10T07:45:17;19.10;99.90
34829;DHT22;21042;47.620;12.188;2023-06-10T07:47:44;19.30;99.90
34829;DHT22;21042;47.620;12.188;2023-06-10T07:50:11;19.40;99.90
34829;DHT22;21042;47.620;12.188;2023-06-10T07:52:38;19.60;99.90
34829;DHT22;21042;47.620;12.188;2023-06-10T07:55:05;19.70;99.90
34829;DHT22;21042;47.620;12.188;2023-06-10T07:57:32;19.70;99.90
34829;DHT22;21042;47.620;12.188;2023-06-10T08:00:05;19.80;99.90
34829;DHT22;21042;47.620;12.188;2023-06-10T08:02:38;19.90;99.90
34829;DHT22;21042;47.620;12.188;2023-06-10T08:05:05;19.90;99.90
34829;DHT22;21042;47.620;12.188;2023-06-10T08:07:33;19.90;99.90
34829;DHT22;21042;47.620;12.188;2023-06-10T08:10:00;20.00;99.90
34829;DHT22;21042;47.620;12.188;2023-06-10T08:12:27;20.00;99.90
34829;DHT22;21042;47.620;12.188;2023-06-10T08:14:54;20.10;99.90
34829;DHT22;21042;47.620;12.188;2023-06-10T08:17:21;20.20;99.90
34829;DHT22;21042;47.620;12.188;2023-06-10T08:19:48;20.30;99.90
34829;DHT22;21042;47.620;12.188;2023-06-10T08:22:15;20.20;99.90
34829;DHT22;21042;47.620;12.188;2023-06-10T08:24:41;20.30;99.90
34829;DHT22;21042;47.620;12.188;2023-06-10T08:27:08;20.50;99.90
34829;DHT22;21042;47.620;12.188;2023-06-10T08:29:35;20.60;99.90
34829;DHT22;21042;47.620;12.188;2023-06-10T08:32:02;20.60;99.90
34829;DHT22;21042;47.620;12.188;2023-06-10T08:34:29;20.70;99.90
34829;DHT22;21042;47.620;12.188;2023-06-10T08:36:56;20.70;99.90
34829;DHT22;21042;47.620;12.188;2023-06-10T08:39:23;20.80;99.90
34829;DHT22;21042;47.620;12.188;2023-06-10T08:44:42;21.00;99.90
34829;DHT22;21042;47.620;12.188;2023-06-10T08:47:14;21.00;99.90
34829;DHT22;21042;47.620;12.188;2023-06-10T08:49:44;21.00;99.90
34829;DHT22;21042;47.620;12.188;2023-06-10T08:52:16;21.20;99.90
34829;DHT22;21042;47.620;12.188;2023-06-10T08:54:52;21.10;99.90
34829;DHT22;21042;47.620;12.188;2023-06-10T08:57:21;21.20;99.90
34829;DHT22;21042;47.620;12.188;2023-06-10T08:59:49;21.30;99.90
34829;DHT22;21042;47.620;12.188;2023-06-10T09:02:15;21.40;99.90
34829;DHT22;21042;47.620;12.188;2023-06-10T09:04:47;21.40;99.90
34829;DHT22;21042;47.620;12.188;2023-06-10T09:07:16;21.60;99.90
34829;DHT22;21042;47.620;12.188;2023-06-10T09:09:44;21.60;99.90
34829;DHT22;21042;47.620;12.188;2023-06-10T09:12:13;21.70;99.90
34829;DHT22;21042;47.620;12.188;2023-06-10T09:14:44;21.70;99.90
34829;DHT22;21042;47.620;12.188;2023-06-10T09:17:11;21.90;99.90
34829;DHT22;21042;47.620;12.188;2023-06-10T09:19:38;22.00;99.90
34829;DHT22;21042;47.620;12.188;2023-06-10T09:22:06;22.10;99.90
34829;DHT22;21042;47.620;12.188;2023-06-10T09:24:33;22.30;99.90
34829;DHT22;21042;47.620;12.188;2023-06-10T09:27:06;22.60;99.90
34829;DHT22;21042;47.620;12.188;2023-06-10T09:29:54;22.80;99.90
34829;DHT22;21042;47.620;12.188;2023-06-10T09:32:21;23.10;99.90
34829;DHT22;21042;47.620;12.188;2023-06-10T09:34:48;23.20;99.90
34829;DHT22;21042;47.620;12.188;2023-06-10T09:37:22;23.50;99.90
34829;DHT22;21042;47.620;12.188;2023-06-10T09:40:03;23.40;99.90
34829;DHT22;21042;47.620;12.188;2023-06-10T09:42:36;23.30;99.90
34829;DHT22;21042;47.620;12.188;2023-06-10T09:45:04;23.20;99.90
34829;DHT22;21042;47.620;12.188;2023-06-10T09:47:31;23.20;99.90
34829;DHT22;21042;47.620;12.188;2023-06-10T09:49:58;23.40;99.90
34829;DHT22;21042;47.620;12.188;2023-06-10T09:52:26;23.50;99.90
34829;DHT22;21042;47.620;12.188;2023-06-10T09:54:59;23.50;99.90
34829;DHT22;21042;47.620;12.188;2023-06-10T09:57:31;23.70;99.90
34829;DHT22;21042;47.620;12.188;2023-06-10T09:59:59;23.90;99.90
34829;DHT22;21042;47.620;12.188;2023-06-10T10:02:26;24.00;99.90
34829;DHT22;21042;47.620;12.188;2023-06-10T10:04:52;24.20;99.90
34829;DHT22;21042;47.620;12.188;2023-06-10T10:07:19;24.20;99.90
34829;DHT22;21042;47.620;12.188;2023-06-10T10:09:47;24.40;99.90
34829;DHT22;21042;47.620;12.188;2023-06-10T10:12:15;24.50;99.90
34829;DHT22;21042;47.620;12.188;2023-06-10T10:14:49;24.60;99.90
34829;DHT22;21042;47.620;12.188;2023-06-10T10:17:16;24.60;99.90
34829;DHT22;21042;47.620;12.188;2023-06-10T10:19:52;24.60;99.90
34829;DHT22;21042;47.620;12.188;2023-06-10T10:22:28;24.00;99.90
34829;DHT22;21042;47.620;12.188;2023-06-10T10:24:57;23.50;99.90
34829;DHT22;21042;47.620;12.188;2023-06-10T10:27:33;23.20;99.90
34829;DHT22;21042;47.620;12.188;2023-06-10T10:30:02;22.90;99.90
34829;DHT22;21042;47.620;12.188;2023-06-10T10:32:37;22.90;99.90
34829;DHT22;21042;47.620;12.188;2023-06-10T10:35:13;22.90;99.90
34829;DHT22;21042;47.620;12.188;2023-06-10T10:37:42;22.80;99.90
34829;DHT22;21042;47.620;12.188;2023-06-10T10:40:09;22.90;99.90
34829;DHT22;21042;47.620;12.188;2023-06-10T10:42:37;22.90;99.90
34829;DHT22;21042;47.620;12.188;2023-06-10T10:45:06;22.90;99.90
34829;DHT22;21042;47.620;12.188;2023-06-10T10:47:36;22.90;99.90
34829;DHT22;21042;47.620;12.188;2023-06-10T10:50:14;22.90;99.90
34829;DHT22;21042;47.620;12.188;2023-06-10T10:52:58;22.90;99.90
34829;DHT22;21042;47.620;12.188;2023-06-10T10:55:26;22.80;99.90
34829;DHT22;21042;47.620;12.188;2023-06-10T10:58:04;22.90;99.90
34829;DHT22;21042;47.620;12.188;2023-06-10T11:00:51;23.00;99.90
34829;DHT22;21042;47.620;12.188;2023-06-10T11:03:18;23.00;99.90
34829;DHT22;21042;47.620;12.188;2023-06-10T11:05:47;23.00;99.90
34829;DHT22;21042;47.620;12.188;2023-06-10T11:10:58;23.00;99.90
34829;DHT22;21042;47.620;12.188;2023-06-10T11:13:26;23.00;99.90
34829;DHT22;21042;47.620;12.188;2023-06-10T11:15:57;23.10;99.90
34829;DHT22;21042;47.620;12.188;2023-06-10T11:18:26;23.00;99.90
34829;DHT22;21042;47.620;12.188;2023-06-10T11:20:58;22.90;99.90
34829;DHT22;21042;47.620;12.188;2023-06-10T11:28:42;22.70;99.90
34829;DHT22;21042;47.620;12.188;2023-06-10T11:31:19;22.70;99.90
34829;DHT22;21042;47.620;12.188;2023-06-10T11:34:07;22.80;99.90
34829;DHT22;21042;47.620;12.188;2023-06-10T11:36:37;22.80;99.90
34829;DHT22;21042;47.620;12.188;2023-06-10T11:39:05;22.80;99.90
34829;DHT22;21042;47.620;12.188;2023-06-10T11:41:33;22.90;99.90
34829;DHT22;21042;47.620;12.188;2023-06-10T11:44:07;22.80;99.90
34829;DHT22;21042;47.620;12.188;2023-06-10T11:46:34;22.80;99.90
34829;DHT22;21042;47.620;12.188;2023-06-10T11:49:02;22.90;99.90
34829;DHT22;21042;47.620;12.188;2023-06-10T11:51:32;23.10;99.90
34829;DHT22;21042;47.620;12.188;2023-06-10T11:53:59;23.20;99.90
34829;DHT22;21042;47.620;12.188;2023-06-10T11:56:27;23.40;99.90
34829;DHT22;21042;47.620;12.188;2023-06-10T11:58:59;23.80;99.90
34829;DHT22;21042;47.620;12.188;2023-06-10T12:01:36;24.50;99.90
34829;DHT22;21042;47.620;12.188;2023-06-10T12:06:48;25.40;99.90
34829;DHT22;21042;47.620;12.188;2023-06-10T12:09:26;25.80;99.90
34829;DHT22;21042;47.620;12.188;2023-06-10T12:14:58;26.40;99.90
34829;DHT22;21042;47.620;12.188;2023-06-10T12:20:02;26.20;99.90
34829;DHT22;21042;47.620;12.188;2023-06-10T12:22:41;26.40;99.90
34829;DHT22;21042;47.620;12.188;2023-06-10T12:25:09;26.70;99.90
34829;DHT22;21042;47.620;12.188;2023-06-10T12:27:39;26.80;99.90
34829;DHT22;21042;47.620;12.188;2023-06-10T12:30:07;26.40;99.90
34829;DHT22;21042;47.620;12.188;2023-06-10T12:32:45;25.50;99.90
34829;DHT22;21042;47.620;12.188;2023-06-10T12:35:14;24.60;99.90
34829;DHT22;21042;47.620;12.188;2023-06-10T12:37:41;24.20;99.90
34829;DHT22;21042;47.620;12.188;2023-06-10T12:40:10;23.60;99.90
34829;DHT22;21042;47.620;12.188;2023-06-10T12:42:37;23.20;99.90
34829;DHT22;21042;47.620;12.188;2023-06-10T12:45:05;22.90;99.90
34829;DHT22;21042;47.620;12.188;2023-06-10T12:47:36;22.80;99.90
34829;DHT22;21042;47.620;12.188;2023-06-10T12:50:05;22.70;99.90
34829;DHT22;21042;47.620;12.188;2023-06-10T12:52:32;22.80;99.90
34829;DHT22;21042;47.620;12.188;2023-06-10T12:54:59;22.80;99.90
34829;DHT22;21042;47.620;12.188;2023-06-10T12:57:27;22.90;99.90
34829;DHT22;21042;47.620;12.188;2023-06-10T12:59:54;23.00;99.90
34829;DHT22;21042;47.620;12.188;2023-06-10T13:02:23;23.10;99.90
34829;DHT22;21042;47.620;12.188;2023-06-10T13:04:51;23.30;99.90
34829;DHT22;21042;47.620;12.188;2023-06-10T13:07:18;23.50;99.90
34829;DHT22;21042;47.620;12.188;2023-06-10T13:09:45;23.50;99.90
34829;DHT22;21042;47.620;12.188;2023-06-10T13:12:15;23.50;99.90
34829;DHT22;21042;47.620;12.188;2023-06-10T13:14:52;23.60;99.90
34829;DHT22;21042;47.620;12.188;2023-06-10T13:17:20;23.80;99.90
34829;DHT22;21042;47.620;12.188;2023-06-10T13:19:47;23.90;99.90
34829;DHT22;21042;47.620;12.188;2023-06-10T13:22:15;24.20;99.90
34829;DHT22;21042;47.620;12.188;2023-06-10T13:24:42;24.30;99.90
34829;DHT22;21042;47.620;12.188;2023-06-10T13:27:10;24.70;99.90
34829;DHT22;21042;47.620;12.188;2023-06-10T13:29:37;25.00;99.90
34829;DHT22;21042;47.620;12.188;2023-06-10T13:32:03;25.20;99.90
34829;DHT22;21042;47.620;12.188;2023-06-10T13:34:30;25.60;99.90
34829;DHT22;21042;47.620;12.188;2023-06-10T13:36:57;25.50;99.90
34829;DHT22;21042;47.620;12.188;2023-06-10T13:39:24;25.40;99.90
34829;DHT22;21042;47.620;12.188;2023-06-10T13:41:51;25.40;99.90
34829;DHT22;21042;47.620;12.188;2023-06-10T13:44:18;25.10;99.90
34829;DHT22;21042;47.620;12.188;2023-06-10T13:46:45;24.60;99.90
34829;DHT22;21042;47.620;12.188;2023-06-10T13:49:15;24.00;99.90
34829;DHT22;21042;47.620;12.188;2023-06-10T13:51:42;23.30;99.90
34829;DHT22;21042;47.620;12.188;2023-06-10T13:54:09;22.70;99.90
34829;DHT22;21042;47.620;12.188;2023-06-10T13:56:37;22.20;99.90
34829;DHT22;21042;47.620;12.188;2023-06-10T13:59:05;21.90;99.90
34829;DHT22;21042;47.620;12.188;2023-06-10T14:01:32;21.60;99.90
34829;DHT22;21042;47.620;12.188;2023-06-10T14:03:59;21.30;99.90
34829;DHT22;21042;47.620;12.188;2023-06-10T14:06:26;20.80;99.90
34829;DHT22;21042;47.620;12.188;2023-06-10T14:08:53;20.00;99.90
34829;DHT22;21042;47.620;12.188;2023-06-10T14:11:21;19.30;99.90
34829;DHT22;21042;47.620;12.188;2023-06-10T14:13:47;19.10;99.90
34829;DHT22;21042;47.620;12.188;2023-06-10T14:16:14;18.80;99.90
34829;DHT22;21042;47.620;12.188;2023-06-10T14:18:41;18.70;99.90
34829;DHT22;21042;47.620;12.188;2023-06-10T14:21:08;18.60;99.90
34829;DHT22;21042;47.620;12.188;2023-06-10T14:23:35;18.70;99.90
34829;DHT22;21042;47.620;12.188;2023-06-10T14:26:02;18.70;99.90
34829;DHT22;21042;47.620;12.188;2023-06-10T14:28:29;19.00;99.90
34829;DHT22;21042;47.620;12.188;2023-06-10T14:30:56;19.10;99.90
34829;DHT22;21042;47.620;12.188;2023-06-10T14:33:24;19.00;99.90
34829;DHT22;21042;47.620;12.188;2023-06-10T14:35:51;18.90;99.90
34829;DHT22;21042;47.620;12.188;2023-06-10T14:38:18;19.00;99.90
34829;DHT22;21042;47.620;12.188;2023-06-10T14:40:45;19.10;99.90
34829;DHT22;21042;47.620;12.188;2023-06-10T14:43:11;19.40;99.90
34829;DHT22;21042;47.620;12.188;2023-06-10T14:45:41;19.70;99.90
34829;DHT22;21042;47.620;12.188;2023-06-10T14:48:08;20.10;99.90
34829;DHT22;21042;47.620;12.188;2023-06-10T14:50:35;20.60;99.90
34829;DHT22;21042;47.620;12.188;2023-06-10T14:53:02;21.00;99.90
34829;DHT22;21042;47.620;12.188;2023-06-10T14:55:29;21.30;99.90
34829;DHT22;21042;47.620;12.188;2023-06-10T14:57:55;22.00;99.90
34829;DHT22;21042;47.620;12.188;2023-06-10T15:00:24;22.70;99.90
34829;DHT22;21042;47.620;12.188;2023-06-10T15:02:52;23.30;99.90
34829;DHT22;21042;47.620;12.188;2023-06-10T15:05:19;23.90;99.90
34829;DHT22;21042;47.620;12.188;2023-06-10T15:07:47;24.30;99.90
34829;DHT22;21042;47.620;12.188;2023-06-10T15:10:14;24.50;99.90
34829;DHT22;21042;47.620;12.188;2023-06-10T15:12:42;24.80;99.90
34829;DHT22;21042;47.620;12.188;2023-06-10T15:15:09;25.00;99.90
34829;DHT22;21042;47.620;12.188;2023-06-10T15:17:37;24.90;99.90
34829;DHT22;21042;47.620;12.188;2023-06-10T15:20:04;24.90;99.90
34829;DHT22;21042;47.620;12.188;2023-06-10T15:22:31;24.80;99.90
34829;DHT22;21042;47.620;12.188;2023-06-10T15:25:01;24.90;99.90
34829;DHT22;21042;47.620;12.188;2023-06-10T15:27:46;24.90;99.90
34829;DHT22;21042;47.620;12.188;2023-06-10T15:30:13;25.00;99.90
34829;DHT22;21042;47.620;12.188;2023-06-10T15:32:40;24.80;99.90
34829;DHT22;21042;47.620;12.188;2023-06-10T15:35:07;25.00;99.90
34829;DHT22;21042;47.620;12.188;2023-06-10T15:37:34;25.00;99.90
34829;DHT22;21042;47.620;12.188;2023-06-10T15:40:02;24.50;99.90
34829;DHT22;21042;47.620;12.188;2023-06-10T15:42:28;23.90;99.90
34829;DHT22;21042;47.620;12.188;2023-06-10T15:44:55;23.50;99.90
34829;DHT22;21042;47.620;12.188;2023-06-10T15:47:22;23.10;99.90